createdAt,value
2022-09-12T00:01:26.917Z,10.54
2022-09-12T00:03:58.748Z,10.53
2022-09-12T00:06:28.354Z,10.53
2022-09-12T00:08:56.814Z,10.49
2022-09-12T00:11:24.036Z,10.45
2022-09-12T00:13:50.885Z,10.40
2022-09-12T00:16:21.236Z,10.37
2022-09-12T00:18:48.626Z,10.37
2022-09-12T00:21:16.983Z,10.35
2022-09-12T00:23:44.304Z,10.32
2022-09-12T00:26:11.379Z,10.30
2022-09-12T00:28:40.227Z,10.28
2022-09-12T00:31:12.306Z,10.26
2022-09-12T00:33:40.027Z,10.28
2022-09-12T00:36:09.626Z,10.23
2022-09-12T00:38:38.731Z,10.19
2022-09-12T00:41:06.410Z,10.20
2022-09-12T00:43:37.982Z,10.23
2022-09-12T00:46:16.427Z,10.22
2022-09-12T00:49:03.528Z,10.20
2022-09-12T00:51:34.114Z,10.20
2022-09-12T00:54:05.553Z,10.24
2022-09-12T00:56:33.137Z,10.24
2022-09-12T00:59:12.691Z,10.25
2022-09-12T01:01:41.958Z,10.22
2022-09-12T01:04:10.881Z,10.15
2022-09-12T01:06:41.487Z,10.16
2022-09-12T01:09:09.742Z,10.22
2022-09-12T01:11:38.910Z,10.25
2022-09-12T01:14:06.228Z,10.29
2022-09-12T01:16:37.077Z,10.32
2022-09-12T01:19:06.571Z,10.34
2022-09-12T01:22:05.498Z,10.33
2022-09-12T01:25:09.829Z,10.31
2022-09-12T01:27:51.579Z,10.30
2022-09-12T01:30:24.387Z,10.31
2022-09-12T01:33:09.544Z,10.31
2022-09-12T01:36:11.568Z,10.30
2022-09-12T01:38:53.301Z,10.20
2022-09-12T01:41:37.888Z,10.13
2022-09-12T01:44:10.419Z,10.12
2022-09-12T01:46:45.530Z,10.09
2022-09-12T01:49:25.125Z,10.05
2022-09-12T01:51:55.646Z,10.05
2022-09-12T01:54:47.306Z,10.03
2022-09-12T01:57:22.187Z,9.97
2022-09-12T01:59:51.398Z,9.91
2022-09-12T02:02:49.487Z,9.91
2022-09-12T02:05:30.961Z,9.87
2022-09-12T02:08:07.008Z,9.87
2022-09-12T02:10:41.416Z,9.84
2022-09-12T02:13:15.878Z,9.82
2022-09-12T02:15:49.378Z,9.76
2022-09-12T02:18:18.760Z,9.76
2022-09-12T02:20:48.958Z,9.72
2022-09-12T02:23:29.096Z,9.69
2022-09-12T02:26:01.540Z,9.64
2022-09-12T02:28:33.826Z,9.58
2022-09-12T02:31:19.143Z,9.57
2022-09-12T02:33:52.138Z,9.56
2022-09-12T02:36:56.859Z,9.57
2022-09-12T02:39:23.630Z,9.55
2022-09-12T02:41:57.167Z,9.59
2022-09-12T02:44:26.263Z,9.64
2022-09-12T02:47:28.405Z,9.70
2022-09-12T02:49:56.429Z,9.72
2022-09-12T02:52:23.509Z,9.81
2022-09-12T02:54:51.249Z,9.80
2022-09-12T02:57:22.873Z,9.83
2022-09-12T02:59:55.170Z,9.87
2022-09-12T03:02:33.055Z,9.91
2022-09-12T03:05:22.956Z,9.93
2022-09-12T03:08:08.068Z,9.99
2022-09-12T03:10:56.582Z,10.03
2022-09-12T03:13:54.617Z,10.05
2022-09-12T03:16:43.280Z,10.08
2022-09-12T03:19:21.958Z,10.15
2022-09-12T03:22:09.612Z,10.17
2022-09-12T03:24:43.293Z,10.16
2022-09-12T03:27:12.611Z,10.20
2022-09-12T03:29:41.021Z,10.20
2022-09-12T03:32:07.695Z,10.19
2022-09-12T03:34:34.486Z,10.17
2022-09-12T03:37:01.170Z,10.17
2022-09-12T03:39:28.211Z,10.14
2022-09-12T03:41:55.819Z,10.14
2022-09-12T03:44:22.502Z,10.13
2022-09-12T03:46:49.289Z,10.09
2022-09-12T03:49:16.297Z,10.05
2022-09-12T03:51:43.334Z,10.09
2022-09-12T03:54:11.348Z,10.04
2022-09-12T03:56:38.194Z,10.02
2022-09-12T03:59:06.907Z,10.01
2022-09-12T04:01:34.294Z,10.01
2022-09-12T04:04:01.199Z,10.02
2022-09-12T04:06:27.960Z,10.03
2022-09-12T04:08:56.364Z,10.03
2022-09-12T04:11:23.522Z,10.00
2022-09-12T04:13:50.598Z,9.99
2022-09-12T04:16:18.729Z,9.98
2022-09-12T04:18:46.448Z,9.98
2022-09-12T04:21:16.418Z,9.97
2022-09-12T04:23:43.412Z,9.92
2022-09-12T04:26:11.170Z,9.91
2022-09-12T04:28:38.503Z,9.90
2022-09-12T04:31:25.963Z,9.84
2022-09-12T04:33:57.400Z,9.82
2022-09-12T04:36:25.619Z,9.82
2022-09-12T04:38:52.683Z,9.78
2022-09-12T04:41:24.867Z,9.77
2022-09-12T04:43:58.376Z,9.74
2022-09-12T04:46:26.167Z,9.74
2022-09-12T04:48:56.673Z,9.73
2022-09-12T04:51:30.316Z,9.74
2022-09-12T04:53:59.561Z,9.74
2022-09-12T04:56:27.497Z,9.76
2022-09-12T04:58:54.749Z,9.76
2022-09-12T05:01:23.238Z,9.76
2022-09-12T05:03:51.195Z,9.80
2022-09-12T05:06:24.012Z,9.80
2022-09-12T05:08:52.365Z,9.81
2022-09-12T05:11:25.493Z,9.82
2022-09-12T05:13:54.954Z,9.83
2022-09-12T05:16:22.978Z,9.84
2022-09-12T05:18:50.375Z,9.85
2022-09-12T05:21:21.231Z,9.89
2022-09-12T05:23:51.669Z,9.91
2022-09-12T05:26:20.619Z,9.91
2022-09-12T05:28:48.672Z,9.92
2022-09-12T05:31:18.383Z,9.90
2022-09-12T05:33:47.518Z,9.89
2022-09-12T05:36:17.799Z,9.88
2022-09-12T05:38:45.185Z,9.86
2022-09-12T05:41:18.997Z,9.90
2022-09-12T05:43:51.689Z,9.93
2022-09-12T05:46:20.362Z,9.92
2022-09-12T05:48:52.522Z,10.01
2022-09-12T05:51:23.204Z,10.37
2022-09-12T05:53:54.082Z,10.72
2022-09-12T05:56:26.107Z,11.07
2022-09-12T05:59:13.953Z,11.40
2022-09-12T06:01:41.066Z,11.76
2022-09-12T06:04:07.869Z,12.08
2022-09-12T06:06:45.504Z,12.46
2022-09-12T06:09:14.854Z,12.81
2022-09-12T06:11:41.884Z,13.14
2022-09-12T06:14:10.363Z,13.45
2022-09-12T06:16:37.847Z,13.66
2022-09-12T06:19:13.277Z,13.87
2022-09-12T06:21:40.161Z,13.87
2022-09-12T06:24:07.666Z,13.85
2022-09-12T06:26:34.836Z,14.05
2022-09-12T06:29:02.038Z,14.39
2022-09-12T06:31:37.461Z,14.86
2022-09-12T06:34:06.540Z,15.28
2022-09-12T06:36:37.067Z,15.70
2022-09-12T06:39:07.698Z,16.05
2022-09-12T06:41:34.815Z,16.06
2022-09-12T06:44:01.883Z,16.26
2022-09-12T06:46:28.804Z,16.24
2022-09-12T06:48:59.780Z,16.17
2022-09-12T06:51:28.110Z,16.00
2022-09-12T06:53:56.896Z,15.97
2022-09-12T06:56:26.669Z,16.17
2022-09-12T06:58:55.456Z,16.61
2022-09-12T07:01:27.270Z,16.50
2022-09-12T07:03:56.728Z,16.46
2022-09-12T07:06:31.589Z,16.31
2022-09-12T07:09:01.487Z,16.06
2022-09-12T07:11:33.671Z,15.82
2022-09-12T07:14:02.210Z,16.04
2022-09-12T07:16:30.142Z,16.30
2022-09-12T07:18:59.970Z,16.62
2022-09-12T07:21:27.831Z,16.98
2022-09-12T07:23:58.177Z,17.37
2022-09-12T07:26:27.264Z,17.44
2022-09-12T07:29:07.897Z,17.63
2022-09-12T07:31:43.061Z,17.75
2022-09-12T07:34:09.908Z,17.49
2022-09-12T07:36:37.205Z,17.33
2022-09-12T07:39:03.977Z,17.13
2022-09-12T07:41:33.867Z,16.86
2022-09-12T07:44:02.734Z,17.06
2022-09-12T07:46:31.381Z,17.44
2022-09-12T07:48:59.520Z,17.64
2022-09-12T07:51:29.583Z,17.70
2022-09-12T07:53:56.658Z,17.51
2022-09-12T07:56:28.838Z,17.63
2022-09-12T07:58:57.044Z,17.66
2022-09-12T08:01:23.746Z,17.66
2022-09-12T08:03:54.899Z,17.59
2022-09-12T08:06:26.663Z,17.60
2022-09-12T08:08:55.866Z,17.44
2022-09-12T08:11:24.057Z,17.39
2022-09-12T08:13:55.234Z,17.42
2022-09-12T08:16:25.950Z,17.49
2022-09-12T08:18:52.915Z,17.56
2022-09-12T08:21:27.651Z,17.64
2022-09-12T08:23:55.505Z,17.94
2022-09-12T08:26:23.509Z,18.19
2022-09-12T08:28:50.767Z,18.32
2022-09-12T08:31:20.596Z,18.29
2022-09-12T08:33:47.449Z,18.51
2022-09-12T08:36:16.963Z,18.63
2022-09-12T08:38:46.517Z,18.83
2022-09-12T08:41:19.332Z,18.81
2022-09-12T08:44:22.995Z,18.95
2022-09-12T08:47:09.842Z,18.82
2022-09-12T08:49:39.701Z,18.89
2022-09-12T08:52:17.054Z,18.95
2022-09-12T08:54:45.599Z,19.05
2022-09-12T08:57:15.200Z,19.16
2022-09-12T08:59:44.965Z,19.12
2022-09-12T09:02:36.416Z,19.10
2022-09-12T09:05:23.321Z,19.19
2022-09-12T09:08:16.851Z,19.25
2022-09-12T09:11:15.897Z,19.38
2022-09-12T09:14:34.965Z,19.48
2022-09-12T09:17:02.817Z,19.64
2022-09-12T09:19:40.868Z,19.79
2022-09-12T09:22:14.769Z,19.84
2022-09-12T09:24:56.121Z,19.82
2022-09-12T09:27:40.455Z,19.87
2022-09-12T09:30:19.813Z,20.03
2022-09-12T09:32:51.068Z,20.29
2022-09-12T09:35:38.016Z,20.51
2022-09-12T09:38:24.493Z,20.60
2022-09-12T09:40:57.232Z,20.65
2022-09-12T09:43:29.201Z,20.62
2022-09-12T09:46:00.577Z,20.55
2022-09-12T09:48:32.577Z,20.69
2022-09-12T09:51:02.026Z,20.88
2022-09-12T09:53:48.896Z,21.00
2022-09-12T09:59:26.877Z,21.16
2022-09-12T10:02:23.783Z,21.15
2022-09-12T10:04:56.167Z,21.04
2022-09-12T10:07:23.756Z,21.19
2022-09-12T10:10:17.367Z,21.25
2022-09-12T10:12:44.652Z,21.10
2022-09-12T10:15:27.087Z,20.98
2022-09-12T10:17:55.558Z,21.02
2022-09-12T10:20:45.148Z,21.07
2022-09-12T10:23:37.722Z,21.14
2022-09-12T10:26:11.494Z,21.16
2022-09-12T10:28:44.867Z,21.60
2022-09-12T10:31:17.625Z,21.74
2022-09-12T10:33:52.816Z,21.48
2022-09-12T10:36:20.876Z,21.14
2022-09-12T10:38:54.136Z,20.73
2022-09-12T10:41:22.086Z,20.36
2022-09-12T10:43:49.004Z,20.16
2022-09-12T10:46:18.373Z,19.93
2022-09-12T10:48:46.454Z,19.93
2022-09-12T10:51:25.285Z,20.09
2022-09-12T10:54:00.845Z,20.21
2022-09-12T10:56:49.805Z,20.13
2022-09-12T10:59:53.573Z,20.34
2022-09-12T11:02:29.816Z,20.67
2022-09-12T11:05:52.005Z,20.82
2022-09-12T11:08:33.658Z,20.91
2022-09-12T11:11:11.927Z,20.77
2022-09-12T11:13:57.561Z,20.91
2022-09-12T11:16:32.892Z,20.87
2022-09-12T11:19:17.905Z,20.85
2022-09-12T11:22:12.588Z,20.85
2022-09-12T11:24:57.798Z,20.82
2022-09-12T11:27:48.222Z,20.82
2022-09-12T11:30:17.397Z,20.83
2022-09-12T11:33:00.089Z,20.83
2022-09-12T11:35:34.631Z,20.80
2022-09-12T11:38:04.862Z,20.72
2022-09-12T11:40:44.393Z,20.92
2022-09-12T11:43:27.207Z,20.85
2022-09-12T11:45:54.550Z,20.89
2022-09-12T11:48:54.772Z,21.03
2022-09-12T11:51:28.496Z,21.26
2022-09-12T11:54:14.090Z,21.30
2022-09-12T11:56:46.424Z,21.37
2022-09-12T11:59:37.851Z,21.37
2022-09-12T12:02:12.381Z,21.31
2022-09-12T12:04:52.012Z,21.29
2022-09-12T12:07:19.638Z,21.23
2022-09-12T12:09:51.728Z,21.26
2022-09-12T12:12:25.997Z,21.15
2022-09-12T12:14:55.485Z,20.99
2022-09-12T12:17:24.254Z,21.10
2022-09-12T12:20:07.505Z,21.03
2022-09-12T12:22:35.998Z,20.69
2022-09-12T12:25:29.472Z,20.83
2022-09-12T12:28:01.566Z,20.69
2022-09-12T12:30:31.217Z,20.54
2022-09-12T12:33:16.002Z,20.49
2022-09-12T12:35:46.908Z,20.72
2022-09-12T12:38:34.521Z,20.82
2022-09-12T12:41:19.592Z,20.99
2022-09-12T12:43:47.446Z,21.10
2022-09-12T12:46:16.264Z,21.14
2022-09-12T12:48:53.865Z,21.15
2022-09-12T12:51:31.062Z,21.10
2022-09-12T12:54:00.524Z,21.17
2022-09-12T12:56:42.281Z,21.23
2022-09-12T12:59:27.221Z,21.29
2022-09-12T13:01:56.220Z,21.38
2022-09-12T13:04:27.010Z,21.37
2022-09-12T13:07:08.194Z,21.38
2022-09-12T13:09:48.719Z,21.41
2022-09-12T13:12:25.134Z,21.43
2022-09-12T13:14:58.383Z,21.23
2022-09-12T13:17:30.649Z,21.08
2022-09-12T13:20:30.883Z,20.92
2022-09-12T13:22:58.363Z,20.80
2022-09-12T13:25:30.159Z,20.72
2022-09-12T13:28:12.756Z,20.66
2022-09-12T13:31:09.849Z,20.49
2022-09-12T13:33:49.519Z,20.35
2022-09-12T13:36:24.101Z,20.21
2022-09-12T13:38:59.863Z,20.00
2022-09-12T13:41:29.484Z,19.87
2022-09-12T13:43:56.165Z,19.77
2022-09-12T13:46:30.539Z,19.68
2022-09-12T13:49:00.639Z,19.62
2022-09-12T13:51:30.675Z,19.56
2022-09-12T13:54:02.261Z,19.55
2022-09-12T13:56:28.963Z,19.55
2022-09-12T13:58:58.083Z,19.55
2022-09-12T14:01:37.798Z,19.52
2022-09-12T14:04:49.232Z,19.51
2022-09-12T14:07:20.391Z,19.58
2022-09-12T14:09:55.262Z,19.65
2022-09-12T14:12:30.285Z,19.71
2022-09-12T14:14:57.435Z,19.81
2022-09-12T14:17:36.336Z,19.88
2022-09-12T14:20:09.005Z,19.84
2022-09-12T14:22:36.509Z,19.77
2022-09-12T14:25:04.030Z,19.74
2022-09-12T14:27:45.812Z,19.73
2022-09-12T14:30:30.764Z,19.68
2022-09-12T14:33:12.645Z,19.60
2022-09-12T14:35:43.613Z,19.56
2022-09-12T14:38:16.173Z,19.56
2022-09-12T14:40:46.368Z,19.51
2022-09-12T14:43:27.896Z,19.44
2022-09-12T14:46:01.153Z,19.44
2022-09-12T14:48:32.209Z,19.39
2022-09-12T14:50:59.422Z,19.40
2022-09-12T14:53:34.995Z,19.33
2022-09-12T14:56:11.993Z,19.31
2022-09-12T14:58:42.207Z,19.26
2022-09-12T15:01:08.868Z,19.17
2022-09-12T15:03:38.266Z,19.07
2022-09-12T15:06:08.144Z,19.01
2022-09-12T15:08:35.036Z,18.92
2022-09-12T15:11:01.917Z,18.82
2022-09-12T15:13:30.809Z,18.68
2022-09-12T15:15:59.925Z,18.62
2022-09-12T15:18:29.099Z,18.56
2022-09-12T15:21:02.460Z,18.54
2022-09-12T15:23:43.817Z,18.45
2022-09-12T15:26:13.974Z,18.40
2022-09-12T15:28:40.764Z,18.32
2022-09-12T15:31:24.852Z,18.22
2022-09-12T15:33:51.993Z,18.19
2022-09-12T15:36:21.206Z,18.15
2022-09-12T15:38:48.951Z,18.08
2022-09-12T15:41:19.497Z,18.03
2022-09-12T15:43:47.060Z,17.97
2022-09-12T15:46:16.222Z,17.80
2022-09-12T15:48:43.549Z,17.74
2022-09-12T15:51:21.387Z,17.71
2022-09-12T15:53:49.344Z,17.67
2022-09-12T15:56:17.861Z,17.65
2022-09-12T15:58:57.691Z,17.66
2022-09-12T16:01:25.918Z,17.62
2022-09-12T16:03:52.606Z,17.54
2022-09-12T16:06:19.246Z,17.42
2022-09-12T16:08:46.098Z,17.37
2022-09-12T16:11:20.558Z,17.34
2022-09-12T16:13:47.197Z,17.28
2022-09-12T16:16:13.854Z,17.24
2022-09-12T16:18:40.938Z,17.19
2022-09-12T16:21:12.635Z,17.14
2022-09-12T16:23:43.444Z,17.07
2022-09-12T16:26:10.148Z,16.96
2022-09-12T16:28:37.036Z,16.91
2022-09-12T16:31:05.518Z,16.85
2022-09-12T16:33:32.939Z,16.81
2022-09-12T16:36:04.787Z,16.75
2022-09-12T16:38:32.462Z,16.67
2022-09-12T16:41:03.883Z,16.64
2022-09-12T16:43:31.876Z,16.60
2022-09-12T16:46:07.519Z,16.61
2022-09-12T16:48:34.717Z,16.57
2022-09-12T16:51:03.914Z,16.59
2022-09-12T16:53:31.491Z,16.55
2022-09-12T16:55:58.126Z,16.51
2022-09-12T16:58:25.317Z,16.49
2022-09-12T17:01:07.132Z,16.43
2022-09-12T17:03:34.236Z,16.39
2022-09-12T17:06:02.211Z,16.38
2022-09-12T17:08:29.667Z,16.37
2022-09-12T17:11:01.331Z,16.37
2022-09-12T17:13:46.582Z,16.35
2022-09-12T17:16:15.401Z,16.35
2022-09-12T17:18:42.307Z,16.31
2022-09-12T17:21:10.669Z,16.27
2022-09-12T17:23:38.221Z,16.25
2022-09-12T17:26:05.859Z,16.21
2022-09-12T17:28:32.664Z,16.13
2022-09-12T17:31:01.372Z,16.04
2022-09-12T17:33:28.919Z,16.00
2022-09-12T17:36:00.828Z,15.96
2022-09-12T17:38:27.984Z,15.91
2022-09-12T17:40:59.880Z,15.86
2022-09-12T17:43:26.712Z,15.81
2022-09-12T17:45:57.444Z,15.75
2022-09-12T17:48:24.151Z,15.68
2022-09-12T17:50:50.787Z,15.63
2022-09-12T17:53:18.005Z,15.60
2022-09-12T17:55:44.623Z,15.54
2022-09-12T17:58:11.376Z,15.51
2022-09-12T18:00:56.493Z,15.43
2022-09-12T18:03:24.013Z,15.35
2022-09-12T18:05:55.453Z,15.30
2022-09-12T18:08:23.675Z,15.21
2022-09-12T18:10:52.043Z,15.16
2022-09-12T18:13:18.815Z,15.08
2022-09-12T18:15:45.504Z,15.04
2022-09-12T18:18:12.311Z,14.96
2022-09-12T18:20:39.372Z,14.90
2022-09-12T18:23:06.001Z,14.86
2022-09-12T18:25:32.632Z,14.81
2022-09-12T18:27:59.381Z,14.82
2022-09-12T18:30:26.045Z,14.73
2022-09-12T18:32:52.661Z,14.67
2022-09-12T18:35:19.299Z,14.63
2022-09-12T18:37:45.943Z,14.55
2022-09-12T18:40:12.636Z,14.50
2022-09-12T18:42:39.361Z,14.41
2022-09-12T18:45:06.745Z,14.28
2022-09-12T18:47:33.342Z,14.24
2022-09-12T18:49:59.992Z,14.20
2022-09-12T18:52:26.655Z,14.14
2022-09-12T18:54:53.289Z,14.11
2022-09-12T18:57:19.979Z,14.04
2022-09-12T18:59:46.561Z,14.01
2022-09-12T19:02:16.721Z,13.94
2022-09-12T19:04:44.270Z,13.88
2022-09-12T19:07:11.013Z,13.81
2022-09-12T19:09:37.952Z,13.78
2022-09-12T19:12:04.894Z,13.76
2022-09-12T19:14:31.541Z,13.68
2022-09-12T19:16:58.193Z,13.60
2022-09-12T19:19:24.925Z,13.57
2022-09-12T19:21:51.649Z,13.57
2022-09-12T19:24:18.324Z,13.53
2022-09-12T19:26:45.316Z,13.48
2022-09-12T19:29:12.309Z,13.47
2022-09-12T19:31:38.989Z,13.46
2022-09-12T19:34:07.272Z,13.42
2022-09-12T19:36:44.735Z,13.37
2022-09-12T19:39:11.879Z,13.31
2022-09-12T19:41:38.583Z,13.27
2022-09-12T19:44:05.722Z,13.20
2022-09-12T19:46:32.715Z,13.15
2022-09-12T19:48:59.438Z,13.10
2022-09-12T19:51:26.475Z,13.09
2022-09-12T19:53:53.550Z,13.02
2022-09-12T19:56:20.941Z,12.97
2022-09-12T19:58:52.270Z,12.95
2022-09-12T20:01:25.697Z,12.94
2022-09-12T20:03:55.505Z,12.91
2022-09-12T20:06:22.624Z,12.91
2022-09-12T20:08:49.412Z,12.90
2022-09-12T20:11:19.124Z,12.86
2022-09-12T20:13:46.198Z,12.82
2022-09-12T20:16:21.035Z,12.79
2022-09-12T20:18:53.886Z,12.80
2022-09-12T20:21:25.287Z,12.75
2022-09-12T20:23:52.462Z,12.74
2022-09-12T20:26:20.383Z,12.73
2022-09-12T20:28:47.598Z,12.72
2022-09-12T20:31:16.105Z,12.69
2022-09-12T20:33:43.142Z,12.66
2022-09-12T20:36:18.957Z,12.63
2022-09-12T20:38:50.893Z,12.60
2022-09-12T20:41:18.485Z,12.60
2022-09-12T20:43:45.263Z,12.59
2022-09-12T20:46:12.200Z,12.59
2022-09-12T20:48:39.359Z,12.60
2022-09-12T20:51:07.513Z,12.58
2022-09-12T20:53:35.382Z,12.60
2022-09-12T20:56:03.169Z,12.58
2022-09-12T20:58:29.846Z,12.58
2022-09-12T21:00:56.649Z,12.46
2022-09-12T21:03:23.430Z,12.38
2022-09-12T21:05:50.033Z,12.34
2022-09-12T21:08:16.927Z,12.33
2022-09-12T21:10:44.733Z,12.34
2022-09-12T21:13:12.818Z,12.35
2022-09-12T21:15:40.846Z,12.37
2022-09-12T21:18:08.288Z,12.36
2022-09-12T21:20:35.004Z,12.28
2022-09-12T21:23:01.790Z,12.28
2022-09-12T21:25:29.772Z,12.27
2022-09-12T21:27:56.427Z,12.26
2022-09-12T21:30:23.111Z,12.17
2022-09-12T21:32:49.763Z,12.15
2022-09-12T21:35:16.597Z,12.15
2022-09-12T21:38:17.852Z,12.04
2022-09-12T21:40:44.894Z,11.96
2022-09-12T21:43:12.976Z,11.98
2022-09-12T21:45:40.179Z,12.04
2022-09-12T21:48:06.849Z,12.10
2022-09-12T21:50:33.549Z,12.16
2022-09-12T21:53:00.196Z,12.21
2022-09-12T21:55:27.370Z,12.23
2022-09-12T21:57:56.992Z,12.25
2022-09-12T22:00:24.179Z,12.27
2022-09-12T22:02:51.052Z,12.28
2022-09-12T22:05:18.455Z,12.26
2022-09-12T22:07:45.043Z,12.25
2022-09-12T22:10:11.729Z,12.25
2022-09-12T22:12:40.731Z,12.27
2022-09-12T22:15:36.441Z,12.26
2022-09-12T22:17:56.713Z,12.23
2022-09-12T22:20:23.333Z,12.22
2022-09-12T22:23:08.628Z,12.21
2022-09-12T22:25:35.335Z,12.22
2022-09-12T22:28:02.262Z,12.22
2022-09-12T22:30:28.987Z,12.23
2022-09-12T22:32:55.666Z,12.26
2022-09-12T22:35:22.337Z,12.23
2022-09-12T22:37:48.952Z,12.24
2022-09-12T22:40:15.923Z,12.24
2022-09-12T22:42:42.864Z,12.20
2022-09-12T22:45:10.061Z,12.13
2022-09-12T22:47:36.814Z,12.13
2022-09-12T22:50:04.335Z,12.22
2022-09-12T22:52:30.995Z,12.25
2022-09-12T22:54:57.620Z,12.28
2022-09-12T22:57:24.274Z,12.28
2022-09-12T22:59:50.937Z,12.26
2022-09-12T23:02:17.612Z,12.27
2022-09-12T23:04:44.256Z,12.27
2022-09-12T23:07:11.110Z,12.27
2022-09-12T23:09:37.778Z,12.30
2022-09-12T23:12:04.527Z,12.30
2022-09-12T23:14:31.353Z,12.32
2022-09-12T23:16:58.062Z,12.32
2022-09-12T23:19:24.992Z,12.33
2022-09-12T23:21:51.632Z,12.34
2022-09-12T23:24:18.396Z,12.37
2022-09-12T23:26:45.014Z,12.38
2022-09-12T23:29:11.673Z,12.40
2022-09-12T23:31:38.463Z,12.38
2022-09-12T23:34:06.348Z,12.39
2022-09-12T23:36:34.269Z,12.39
2022-09-12T23:39:01.268Z,12.37
2022-09-12T23:41:28.510Z,12.39
2022-09-12T23:43:55.647Z,12.37
2022-09-12T23:46:22.423Z,12.34
2022-09-12T23:48:49.672Z,12.32
2022-09-12T23:51:16.526Z,12.28
2022-09-12T23:53:43.332Z,12.25
2022-09-12T23:56:10.169Z,12.23
2022-09-12T23:58:37.059Z,12.19
